Time;durP1;ratioP1;P1;durP2;ratioP2;P2;SDS_P1;SDS_P2;PMS_P1;PMS_P2;Temp;Humidity;BMP_temperature;BMP_pressure;BME280_temperature;BME280_humidity;BME280_pressure;Samples;Min_cycle;Max_cycle;Signal;HPM_P1;HPM_P2
2021/10/30 00:02:07;;;;;;;17.73;11.55;;;;;;;9.27;100.00;100613.75;4995913;28;20038;-79
2021/10/30 00:04:33;;;;;;;23.65;12.40;;;;;;;9.21;100.00;100611.66;4995121;28;20030;-80
2021/10/30 00:06:59;;;;;;;23.98;13.35;;;;;;;9.14;100.00;100616.69;4995435;28;20594;-79
2021/10/30 00:09:25;;;;;;;23.45;14.02;;;;;;;9.12;100.00;100608.84;4994385;28;20375;-79
2021/10/30 00:11:50;;;;;;;19.73;12.55;;;;;;;9.17;100.00;100609.28;4995203;28;20112;-78
2021/10/30 00:14:16;;;;;;;22.30;14.10;;;;;;;9.23;100.00;100607.91;4995495;28;20462;-78
2021/10/30 00:16:42;;;;;;;33.92;15.02;;;;;;;9.29;100.00;100603.88;4995070;28;20030;-79
2021/10/30 00:19:07;;;;;;;24.10;14.68;;;;;;;9.34;100.00;100605.16;4994306;28;20033;-79
2021/10/30 00:21:33;;;;;;;25.60;13.57;;;;;;;9.39;100.00;100601.22;4995012;28;20058;-81
2021/10/30 00:23:58;;;;;;;26.30;13.70;;;;;;;9.41;100.00;100600.09;4995387;28;20030;-80
2021/10/30 00:26:23;;;;;;;21.27;13.82;;;;;;;9.42;100.00;100598.28;4993739;28;20039;-80
2021/10/30 00:28:49;;;;;;;23.85;14.52;;;;;;;9.43;100.00;100594.66;4994350;28;20038;-80
2021/10/30 00:31:14;;;;;;;28.25;14.45;;;;;;;9.48;100.00;100600.38;4993438;28;20094;-79
2021/10/30 00:33:40;;;;;;;21.77;13.93;;;;;;;9.52;100.00;100601.78;4994631;28;20042;-79
2021/10/30 00:36:05;;;;;;;21.40;14.25;;;;;;;9.60;100.00;100601.09;4994971;28;20027;-79
2021/10/30 00:38:31;;;;;;;21.60;13.18;;;;;;;9.67;100.00;100608.41;4994949;28;20061;-79
2021/10/30 00:40:56;;;;;;;21.17;13.27;;;;;;;9.73;100.00;100604.31;4994492;28;20031;-79
2021/10/30 00:43:22;;;;;;;25.83;13.90;;;;;;;9.77;100.00;100600.41;4994772;28;20044;-79
2021/10/30 00:45:47;;;;;;;17.13;12.93;;;;;;;9.85;100.00;100599.72;4994483;28;20091;-80
2021/10/30 00:48:14;;;;;;;20.10;13.13;;;;;;;9.88;100.00;100596.78;4993721;28;20482;-79
2021/10/30 00:50:41;;;;;;;23.85;13.05;;;;;;;9.94;100.00;100590.91;4994380;28;20053;-81
2021/10/30 00:53:07;;;;;;;18.08;12.50;;;;;;;10.00;99.82;100597.47;4994771;28;20101;-80
2021/10/30 00:55:33;;;;;;;20.85;12.68;;;;;;;10.07;99.22;100598.59;4994808;28;20039;-79
2021/10/30 00:58:00;;;;;;;19.35;12.15;;;;;;;10.16;98.50;100592.41;4994208;28;20054;-80
2021/10/30 01:00:26;;;;;;;17.55;11.82;;;;;;;10.22;97.64;100589.19;4995032;28;20117;-81
2021/10/30 01:02:52;;;;;;;18.83;11.23;;;;;;;10.28;97.11;100582.47;4994377;28;20137;-80
2021/10/30 01:05:18;;;;;;;14.38;11.77;;;;;;;10.30;96.75;100567.22;4994982;28;20045;-80
2021/10/30 01:07:44;;;;;;;15.15;11.27;;;;;;;10.32;96.47;100565.25;4994112;28;20482;-80
2021/10/30 01:10:09;;;;;;;17.58;10.55;;;;;;;10.33;96.69;100569.63;4994386;28;20114;-80
2021/10/30 01:12:35;;;;;;;19.45;10.35;;;;;;;10.36;96.37;100565.81;4994384;28;20093;-79
2021/10/30 01:15:05;;;;;;;17.13;10.13;;;;;;;10.36;96.01;100560.50;4994109;28;20034;-79
2021/10/30 01:17:30;;;;;;;17.10;10.15;;;;;;;10.38;95.90;100556.72;4994462;28;20038;-80
2021/10/30 01:19:56;;;;;;;13.27;10.55;;;;;;;10.39;95.72;100557.56;4993801;28;20034;-80
2021/10/30 01:22:23;;;;;;;12.82;9.80;;;;;;;10.38;95.50;100547.91;4994218;28;20042;-80
2021/10/30 01:24:50;;;;;;;13.90;9.23;;;;;;;10.38;95.49;100555.88;4993791;28;20034;-80
2021/10/30 01:27:17;;;;;;;18.88;10.23;;;;;;;10.38;95.30;100547.91;4992803;28;20405;-81
2021/10/30 01:29:43;;;;;;;15.40;9.45;;;;;;;10.39;95.18;100549.59;4993867;28;20505;-81
2021/10/30 01:32:09;;;;;;;21.08;9.70;;;;;;;10.39;95.36;100547.75;4994223;28;20117;-81
2021/10/30 01:34:34;;;;;;;12.75;8.73;;;;;;;10.40;95.48;100552.09;4994215;28;20437;-81
2021/10/30 01:36:59;;;;;;;14.82;9.38;;;;;;;10.40;95.38;100552.09;4992676;28;20052;-80
2021/10/30 01:39:25;;;;;;;14.77;9.02;;;;;;;10.41;95.21;100550.28;4993888;28;20062;-80
2021/10/30 01:41:51;;;;;;;14.98;9.70;;;;;;;10.44;95.33;100555.31;4992716;28;20038;-80
2021/10/30 01:44:17;;;;;;;11.10;8.48;;;;;;;10.47;95.02;100546.19;4993818;28;20086;-80
2021/10/30 01:46:42;;;;;;;16.45;9.48;;;;;;;10.51;95.18;100547.56;4993727;28;20062;-82
2021/10/30 01:49:08;;;;;;;25.70;9.77;;;;;;;10.54;95.11;100549.97;4993854;28;20449;-80
2021/10/30 01:51:33;;;;;;;14.68;10.25;;;;;;;10.56;95.07;100542.66;4993946;28;20042;-80
2021/10/30 01:54:00;;;;;;;14.70;10.15;;;;;;;10.55;94.99;100541.84;4993270;28;20031;-80
2021/10/30 01:56:26;;;;;;;17.55;9.98;;;;;;;10.56;94.95;100532.84;4993506;28;20140;-80
2021/10/30 01:58:51;;;;;;;16.52;9.90;;;;;;;10.57;95.08;100523.06;4993362;28;20062;-80
2021/10/30 02:01:16;;;;;;;15.65;10.38;;;;;;;10.61;94.89;100518.28;4993809;28;20109;-80
2021/10/30 02:03:42;;;;;;;16.48;11.15;;;;;;;10.60;95.09;100506.81;4993654;28;20034;-80
2021/10/30 02:06:08;;;;;;;17.13;10.82;;;;;;;10.57;94.96;100502.59;4993164;28;20113;-81
2021/10/30 02:08:34;;;;;;;17.88;11.25;;;;;;;10.61;94.99;100507.63;4993423;28;20045;-81
2021/10/30 02:11:00;;;;;;;14.35;10.40;;;;;;;10.60;94.91;100501.47;4992985;28;20026;-82
2021/10/30 02:13:25;;;;;;;15.35;11.27;;;;;;;10.56;95.00;100495.59;4993540;28;20057;-82
2021/10/30 02:15:51;;;;;;;15.43;10.73;;;;;;;10.54;95.15;100488.78;4993085;28;20478;-81
2021/10/30 02:18:17;;;;;;;16.58;10.73;;;;;;;10.50;95.25;100490.88;4993553;28;20469;-81
2021/10/30 02:20:43;;;;;;;15.77;10.60;;;;;;;10.44;95.14;100477.34;4992430;28;20035;-82
2021/10/30 02:23:09;;;;;;;12.02;9.82;;;;;;;10.34;95.33;100474.72;4992940;28;20062;-82
2021/10/30 02:25:34;;;;;;;16.80;10.73;;;;;;;10.21;95.39;100486.50;4991987;28;20034;-80
2021/10/30 02:27:59;;;;;;;15.88;11.13;;;;;;;10.13;95.80;100483.69;4991837;28;20482;-81
2021/10/30 02:30:25;;;;;;;15.48;11.35;;;;;;;10.10;96.85;100470.69;4993246;28;20030;-82
2021/10/30 02:32:51;;;;;;;18.83;11.70;;;;;;;10.07;96.69;100457.69;4992715;28;20104;-81
2021/10/30 02:35:17;;;;;;;17.48;11.57;;;;;;;10.01;96.89;100455.63;4993270;28;20516;-82
2021/10/30 02:37:43;;;;;;;15.63;10.80;;;;;;;9.98;97.21;100453.25;4993315;28;20070;-82
2021/10/30 02:40:09;;;;;;;16.60;12.07;;;;;;;9.96;97.48;100452.59;4992578;28;20406;-81
2021/10/30 02:42:36;;;;;;;20.77;11.85;;;;;;;9.88;97.19;100430.22;4993295;28;20026;-82
2021/10/30 02:45:03;;;;;;;20.48;11.40;;;;;;;9.81;97.27;100431.78;4992841;28;20092;-81
2021/10/30 02:47:29;;;;;;;16.00;11.52;;;;;;;9.71;97.22;100433.59;4993138;28;20089;-82
2021/10/30 02:49:55;;;;;;;18.30;11.48;;;;;;;9.63;97.45;100433.47;4992735;28;20026;-82
2021/10/30 02:52:20;;;;;;;21.27;12.18;;;;;;;9.57;98.35;100429.59;4993294;28;20035;-81
2021/10/30 02:54:46;;;;;;;21.48;12.55;;;;;;;9.55;98.92;100423.56;4997158;28;20038;-81
2021/10/30 02:57:11;;;;;;;17.92;12.70;;;;;;;9.56;99.30;100421.78;4995142;28;20411;-81
2021/10/30 02:59:37;;;;;;;20.92;12.73;;;;;;;9.58;99.59;100415.31;4997195;28;20402;-81
2021/10/30 03:02:03;;;;;;;19.23;12.27;;;;;;;9.63;99.50;100417.53;4996408;28;20033;-81
2021/10/30 03:04:29;;;;;;;21.17;12.38;;;;;;;9.65;99.54;100397.81;4996926;28;20042;-81
2021/10/30 03:06:54;;;;;;;19.60;12.20;;;;;;;9.72;99.31;100398.09;4996652;28;20370;-82
2021/10/30 03:09:20;;;;;;;19.92;12.60;;;;;;;9.72;99.33;100382.16;4996647;28;20034;-81
2021/10/30 03:11:45;;;;;;;17.70;12.48;;;;;;;9.71;99.06;100386.63;4995781;28;20359;-81
2021/10/30 03:14:11;;;;;;;16.95;12.50;;;;;;;9.72;99.33;100384.81;4996396;28;20042;-82
2021/10/30 03:16:37;;;;;;;17.15;11.43;;;;;;;9.73;99.41;100385.66;4996683;28;20026;-81
2021/10/30 03:19:02;;;;;;;16.52;12.60;;;;;;;9.71;99.47;100378.66;4995959;28;20462;-81
2021/10/30 03:21:28;;;;;;;18.67;12.35;;;;;;;9.71;99.65;100383.13;4996531;28;20111;-81
2021/10/30 03:23:53;;;;;;;19.67;12.88;;;;;;;9.74;99.92;100377.53;4995982;28;20401;-82
2021/10/30 03:26:19;;;;;;;18.92;12.52;;;;;;;9.76;100.00;100378.22;4995693;28;20486;-81
2021/10/30 03:28:44;;;;;;;17.75;11.70;;;;;;;9.79;99.99;100369.97;4995457;28;20089;-81
2021/10/30 03:31:10;;;;;;;19.20;12.38;;;;;;;9.78;99.73;100357.66;4994742;28;20041;-81
2021/10/30 03:33:35;;;;;;;17.02;11.70;;;;;;;9.79;100.00;100348.72;4996706;28;20172;-82
2021/10/30 03:36:01;;;;;;;20.52;12.52;;;;;;;9.80;100.00;100350.38;4995816;28;20070;-81
2021/10/30 03:38:26;;;;;;;18.13;12.00;;;;;;;9.83;100.00;100351.91;4996045;28;20465;-81
2021/10/30 03:40:52;;;;;;;18.67;11.55;;;;;;;9.83;100.00;100358.06;4994902;28;20193;-81
2021/10/30 03:43:17;;;;;;;17.98;11.68;;;;;;;9.80;100.00;100347.72;4994598;28;20034;-81
2021/10/30 03:45:43;;;;;;;18.48;11.68;;;;;;;9.80;100.00;100344.22;4995922;28;20076;-80
2021/10/30 03:48:09;;;;;;;18.08;12.15;;;;;;;9.78;100.00;100347.03;4995602;28;20487;-80
2021/10/30 03:50:38;;;;;;;19.15;13.10;;;;;;;9.79;100.00;100350.53;4995807;28;20072;-80
2021/10/30 03:53:05;;;;;;;18.63;12.52;;;;;;;9.78;100.00;100347.03;4993844;28;20030;-80
2021/10/30 03:55:30;;;;;;;21.30;12.75;;;;;;;9.79;100.00;100337.22;4996213;28;20030;-80
2021/10/30 03:57:56;;;;;;;20.63;12.52;;;;;;;9.80;100.00;100336.25;4995732;28;20141;-80
2021/10/30 04:00:24;;;;;;;20.05;12.93;;;;;;;9.80;100.00;100329.13;4995728;28;20073;-80
2021/10/30 04:02:50;;;;;;;20.80;13.25;;;;;;;9.80;100.00;100321.16;4994533;28;20033;-80
2021/10/30 04:05:15;;;;;;;19.50;12.27;;;;;;;9.81;100.00;100316.69;4992887;28;20030;-80
2021/10/30 04:07:41;;;;;;;17.27;12.55;;;;;;;9.79;100.00;100314.19;4995609;28;20093;-79
2021/10/30 04:10:07;;;;;;;19.20;13.20;;;;;;;9.81;100.00;100311.38;4994115;28;20038;-80
2021/10/30 04:12:32;;;;;;;19.48;12.50;;;;;;;9.83;100.00;100318.19;4995731;28;20105;-80
2021/10/30 04:14:58;;;;;;;21.10;13.30;;;;;;;9.85;100.00;100310.06;4995332;28;20090;-81
2021/10/30 04:17:23;;;;;;;19.33;12.55;;;;;;;9.84;100.00;100303.94;4994310;28;20121;-80
2021/10/30 04:19:49;;;;;;;17.52;12.50;;;;;;;9.84;100.00;100303.94;4995469;28;20438;-79
2021/10/30 04:22:14;;;;;;;18.15;12.35;;;;;;;9.86;100.00;100301.13;4994935;28;20045;-79
2021/10/30 04:24:39;;;;;;;20.73;13.60;;;;;;;9.88;100.00;100310.63;4995469;28;20035;-79
2021/10/30 04:27:05;;;;;;;20.77;13.55;;;;;;;9.89;100.00;100304.31;4995173;28;20081;-80
2021/10/30 04:29:31;;;;;;;21.00;12.80;;;;;;;9.92;100.00;100299.72;4995243;28;20050;-79
2021/10/30 04:31:59;;;;;;;22.25;12.25;;;;;;;9.92;100.00;100292.56;4995328;28;20122;-77
2021/10/30 04:34:40;;;;;;;18.35;12.25;;;;;;;9.91;100.00;100288.22;4995005;28;20117;-77
2021/10/30 04:37:13;;;;;;;19.05;13.27;;;;;;;9.90;100.00;100283.91;4994674;28;20034;-76
2021/10/30 04:39:39;;;;;;;21.02;14.13;;;;;;;9.87;100.00;100279.72;4995453;28;20035;-76
2021/10/30 04:42:05;;;;;;;24.65;14.15;;;;;;;9.86;100.00;100277.22;4994735;28;20030;-76
2021/10/30 04:44:30;;;;;;;24.55;15.07;;;;;;;9.86;100.00;100277.22;4994863;28;20050;-76
2021/10/30 04:46:56;;;;;;;22.70;14.30;;;;;;;9.84;100.00;100274.72;4995027;28;20157;-75
2021/10/30 04:49:21;;;;;;;25.17;15.05;;;;;;;9.81;100.00;100260.91;4994646;28;20053;-75
2021/10/30 04:51:46;;;;;;;24.95;15.60;;;;;;;9.80;100.00;100256.56;4994755;28;20030;-75
2021/10/30 04:54:12;;;;;;;22.42;15.18;;;;;;;9.79;100.00;100252.22;4994304;28;20120;-77
2021/10/30 04:56:37;;;;;;;28.48;16.10;;;;;;;9.76;100.00;100248.03;4994787;28;20034;-78
2021/10/30 04:59:03;;;;;;;26.73;17.15;;;;;;;9.77;100.00;100240.91;4993329;28;20034;-77
2021/10/30 05:01:28;;;;;;;26.52;16.05;;;;;;;9.75;100.00;100241.06;4993517;28;20100;-77
2021/10/30 05:03:53;;;;;;;29.02;17.10;;;;;;;9.74;100.00;100239.38;4993401;28;20493;-77
2021/10/30 05:06:18;;;;;;;32.50;18.05;;;;;;;9.74;100.00;100243.88;4992970;28;20378;-77
2021/10/30 05:08:44;;;;;;;29.98;17.38;;;;;;;9.73;100.00;100232.38;4994758;28;20434;-77
2021/10/30 05:11:09;;;;;;;30.52;17.92;;;;;;;9.73;100.00;100236.88;4994132;28;20426;-76
2021/10/30 05:13:35;;;;;;;30.30;19.05;;;;;;;9.72;100.00;100233.38;4994579;28;20053;-75
2021/10/30 05:16:01;;;;;;;30.60;18.63;;;;;;;9.71;100.00;100227.22;4994312;28;20372;-75
2021/10/30 05:18:27;;;;;;;35.40;18.38;;;;;;;9.73;100.00;100224.41;4993701;28;20030;-75
2021/10/30 05:20:53;;;;;;;31.67;18.58;;;;;;;9.74;100.00;100222.63;4994147;28;20066;-75
2021/10/30 05:23:19;;;;;;;32.35;18.50;;;;;;;9.74;100.00;100222.63;4993932;28;20069;-76
2021/10/30 05:25:45;;;;;;;38.65;19.40;;;;;;;9.74;100.00;100218.13;4994399;28;20377;-75
2021/10/30 05:28:10;;;;;;;33.88;18.98;;;;;;;9.75;100.00;100208.31;4993854;28;20081;-75
2021/10/30 05:30:35;;;;;;;36.15;19.63;;;;;;;9.76;100.00;100212.66;4994125;28;20036;-74
2021/10/30 05:33:01;;;;;;;31.42;18.75;;;;;;;9.77;100.00;100206.38;4993925;28;20042;-74
2021/10/30 05:35:26;;;;;;;36.88;18.58;;;;;;;9.81;100.00;100205.91;4993795;28;20042;-76
2021/10/30 05:37:52;;;;;;;32.67;18.58;;;;;;;9.82;100.00;100199.63;4994224;28;20058;-76
2021/10/30 05:40:17;;;;;;;37.63;19.88;;;;;;;9.87;100.00;100199.19;4993555;28;20037;-77
2021/10/30 05:42:42;;;;;;;28.33;17.20;;;;;;;9.86;100.00;100194.84;4994012;28;20117;-76
2021/10/30 05:45:09;;;;;;;34.55;19.15;;;;;;;9.88;100.00;100191.06;4993611;28;20041;-77
2021/10/30 05:47:36;;;;;;;34.40;18.92;;;;;;;9.88;100.00;100177.78;4993870;28;20398;-77
2021/10/30 05:50:03;;;;;;;36.85;18.50;;;;;;;9.90;100.00;100174.97;4993909;28;20070;-76
2021/10/30 05:52:28;;;;;;;31.52;17.48;;;;;;;9.93;100.00;100169.34;4993338;28;20034;-77
2021/10/30 05:54:54;;;;;;;36.47;17.40;;;;;;;9.93;100.00;100165.84;4993738;28;20038;-75
2021/10/30 05:57:19;;;;;;;26.27;16.42;;;;;;;9.96;100.00;100165.56;4993303;28;20058;-75
2021/10/30 05:59:46;;;;;;;33.20;17.70;;;;;;;9.96;100.00;100165.56;4993550;28;20042;-75
2021/10/30 06:02:12;;;;;;;27.25;15.88;;;;;;;9.96;100.00;100160.25;4993498;28;20041;-75
2021/10/30 06:04:41;;;;;;;28.75;16.80;;;;;;;9.95;100.00;100164.69;4993679;28;20132;-75
2021/10/30 06:07:07;;;;;;;28.38;16.63;;;;;;;9.94;100.00;100159.53;4993740;28;20069;-75
2021/10/30 06:09:33;;;;;;;28.40;16.98;;;;;;;9.94;100.00;100168.38;4993023;28;20030;-75
2021/10/30 06:11:59;;;;;;;29.88;16.15;;;;;;;9.93;100.00;100164.03;4993616;28;20498;-75
2021/10/30 06:14:25;;;;;;;29.70;16.13;;;;;;;9.94;100.00;100165.72;4992931;28;20030;-76
2021/10/30 06:16:50;;;;;;;25.88;16.40;;;;;;;9.96;100.00;100174.34;4993300;28;20387;-75
2021/10/30 06:19:16;;;;;;;29.73;16.23;;;;;;;9.96;100.00;100170.88;4992669;28;20463;-75
2021/10/30 06:21:42;;;;;;;35.83;16.98;;;;;;;9.94;100.00;100165.72;4993263;28;20061;-76
2021/10/30 06:24:08;;;;;;;28.10;15.10;;;;;;;9.97;100.00;100165.41;4992078;28;20038;-75
2021/10/30 06:26:34;;;;;;;28.17;15.93;;;;;;;9.98;100.00;100171.53;4992869;28;20026;-76
2021/10/30 06:28:59;;;;;;;26.88;15.90;;;;;;;9.99;100.00;100168.72;4992899;28;20042;-75
2021/10/30 06:31:25;;;;;;;29.50;16.52;;;;;;;10.02;100.00;100179.06;4993004;28;20056;-76
2021/10/30 06:33:50;;;;;;;26.15;15.65;;;;;;;10.03;100.00;100163.94;4991830;28;20039;-75
2021/10/30 06:36:15;;;;;;;26.75;15.35;;;;;;;10.03;100.00;100163.94;4992902;28;20065;-76
2021/10/30 06:38:41;;;;;;;23.00;14.82;;;;;;;10.04;100.00;100155.00;4992798;28;20077;-75
2021/10/30 06:41:08;;;;;;;27.40;15.48;;;;;;;10.03;100.00;100150.66;4992452;28;20027;-75
2021/10/30 06:43:34;;;;;;;31.23;15.27;;;;;;;10.04;100.00;100152.34;4992499;28;20045;-76
2021/10/30 06:46:00;;;;;;;24.40;15.52;;;;;;;10.05;100.00;100151.34;4992947;28;20023;-75
2021/10/30 06:48:25;;;;;;;27.42;16.02;;;;;;;10.06;100.00;100145.88;4992507;28;20034;-77
2021/10/30 06:50:53;;;;;;;28.38;15.23;;;;;;;10.07;100.00;100144.88;4993327;28;20039;-74
2021/10/30 06:53:19;;;;;;;29.80;16.42;;;;;;;10.07;100.00;100128.09;4992573;28;20109;-75
2021/10/30 06:55:46;;;;;;;24.42;15.70;;;;;;;10.07;100.00;100123.59;4993028;28;20062;-78
2021/10/30 06:58:12;;;;;;;30.98;16.30;;;;;;;10.06;100.00;100119.31;4993208;28;20054;-77
2021/10/30 07:00:37;;;;;;;25.00;15.27;;;;;;;10.06;100.00;100121.09;4992484;28;20042;-77
2021/10/30 07:03:06;;;;;;;24.23;14.68;;;;;;;10.06;100.00;100119.31;4976197;28;20105;-77
2021/10/30 07:05:31;;;;;;;24.02;14.88;;;;;;;10.06;100.00;100106.00;4992547;28;20038;-75
2021/10/30 07:07:57;;;;;;;24.33;14.45;;;;;;;10.06;100.00;100100.69;4992946;28;20496;-77
2021/10/30 07:10:22;;;;;;;23.55;14.40;;;;;;;10.07;100.00;100101.53;4992558;28;20049;-77
2021/10/30 07:12:47;;;;;;;22.73;14.10;;;;;;;10.06;100.00;100116.66;4992874;28;20035;-77
2021/10/30 07:15:13;;;;;;;23.65;13.75;;;;;;;10.09;100.00;100119.97;4975366;28;20038;-75
2021/10/30 07:17:40;;;;;;;20.52;12.55;;;;;;;10.10;100.00;100108.38;4992338;28;20045;-77
2021/10/30 07:20:07;;;;;;;24.30;13.13;;;;;;;10.09;100.00;100107.53;4992725;28;20463;-79
2021/10/30 07:22:45;;;;;;;23.05;14.00;;;;;;;10.09;100.00;100112.84;4992381;28;20042;-80
2021/10/30 07:25:11;;;;;;;25.77;13.77;;;;;;;10.09;100.00;100112.84;4992806;28;20056;-81
2021/10/30 07:27:37;;;;;;;23.23;14.15;;;;;;;10.10;100.00;100122.47;4991128;28;20415;-80
2021/10/30 07:30:05;;;;;;;23.05;14.68;;;;;;;10.11;100.00;100108.22;4992744;28;20030;-80
2021/10/30 07:32:30;;;;;;;22.27;13.80;;;;;;;10.12;100.00;100104.56;4991106;28;20486;-81
2021/10/30 07:34:56;;;;;;;30.67;14.15;;;;;;;10.13;100.00;100097.41;4992615;28;20070;-81
2021/10/30 07:37:21;;;;;;;22.40;13.48;;;;;;;10.16;100.00;100097.09;4974943;28;20400;-79
2021/10/30 07:39:47;;;;;;;24.10;14.15;;;;;;;10.18;100.00;100100.44;4977385;28;20474;-79
2021/10/30 07:42:12;;;;;;;26.92;14.02;;;;;;;10.19;100.00;100091.47;4996153;28;20117;-83
2021/10/30 07:44:41;;;;;;;20.90;13.18;;;;;;;10.21;100.00;100089.50;4995818;28;20042;-82
2021/10/30 07:47:07;;;;;;;24.23;13.32;;;;;;;10.22;100.00;100094.66;4995149;28;20030;-81
2021/10/30 07:49:33;;;;;;;19.15;12.85;;;;;;;10.26;100.00;100083.72;4995427;28;20046;-80
2021/10/30 07:52:03;;;;;;;20.27;13.13;;;;;;;10.26;100.00;100075.75;4996143;28;20031;-81
2021/10/30 07:54:28;;;;;;;22.55;13.43;;;;;;;10.27;100.00;100074.75;4995556;28;20030;-82
2021/10/30 07:56:54;;;;;;;20.75;12.40;;;;;;;10.30;100.00;100080.59;4995837;28;20514;-84
2021/10/30 07:59:19;;;;;;;19.38;12.95;;;;;;;10.31;100.00;100065.47;4995788;28;20506;-81
2021/10/30 08:01:45;;;;;;;19.70;11.88;;;;;;;10.32;100.00;100072.47;4995494;28;20034;-79
2021/10/30 08:04:10;;;;;;;19.90;11.43;;;;;;;10.32;100.00;100069.81;4994636;28;20030;-79
2021/10/30 08:06:35;;;;;;;17.45;11.10;;;;;;;10.33;100.00;100063.47;4978015;28;20036;-80
2021/10/30 08:09:01;;;;;;;18.83;12.05;;;;;;;10.33;100.00;100069.69;4978255;28;20057;-79
2021/10/30 08:11:26;;;;;;;16.52;11.43;;;;;;;10.33;100.00;100067.03;4995272;28;20030;-79
2021/10/30 08:13:52;;;;;;;18.27;11.57;;;;;;;10.34;100.00;100075.84;4994314;28;20038;-76
2021/10/30 08:16:17;;;;;;;20.00;11.75;;;;;;;10.36;100.00;100084.47;4995503;28;20030;-76
2021/10/30 08:18:43;;;;;;;17.95;11.70;;;;;;;10.34;100.00;100086.47;4995195;28;20118;-77
2021/10/30 08:21:09;;;;;;;20.10;12.07;;;;;;;10.34;100.00;100075.84;4995513;28;20096;-77
2021/10/30 08:23:34;;;;;;;17.33;11.65;;;;;;;10.34;100.00;100074.00;4995084;28;20038;-76
2021/10/30 08:26:00;;;;;;;21.38;11.70;;;;;;;10.37;100.00;100078.19;4995412;28;20037;-77
2021/10/30 08:28:25;;;;;;;18.00;11.88;;;;;;;10.38;100.00;100072.69;4995331;28;20030;-77
2021/10/30 08:30:50;;;;;;;16.77;11.02;;;;;;;10.40;100.00;100072.53;4994892;28;20458;-75
2021/10/30 08:33:16;;;;;;;15.77;11.02;;;;;;;10.41;100.00;100071.56;4995265;28;20034;-74
2021/10/30 08:35:41;;;;;;;15.50;10.43;;;;;;;10.44;100.00;100059.78;4993612;28;20038;-74
2021/10/30 08:38:09;;;;;;;19.83;10.23;;;;;;;10.45;100.00;100064.94;4995162;28;20034;-73
2021/10/30 08:40:39;;;;;;;20.42;10.27;;;;;;;10.46;100.00;100060.44;4994998;28;20049;-77
2021/10/30 08:43:08;;;;;;;17.40;10.30;;;;;;;10.48;100.00;100071.75;4994503;28;20421;-75
2021/10/30 08:45:34;;;;;;;14.20;9.00;;;;;;;10.50;100.00;100059.16;4993368;28;20053;-75
2021/10/30 08:48:04;;;;;;;17.02;9.68;;;;;;;10.50;100.00;100056.50;4994207;28;20114;-75
2021/10/30 08:50:30;;;;;;;14.90;8.93;;;;;;;10.52;100.00;100057.97;4992617;28;20026;-74
2021/10/30 08:52:55;;;;;;;13.70;9.48;;;;;;;10.51;100.00;100059.00;4993760;28;20038;-84
2021/10/30 08:55:21;;;;;;;13.15;9.35;;;;;;;10.53;100.00;100054.34;4993825;28;20042;-83
2021/10/30 08:57:46;;;;;;;16.60;9.25;;;;;;;10.54;100.00;100049.88;4994537;28;20533;-81
2021/10/30 09:00:20;;;;;;;15.50;9.30;;;;;;;10.55;100.00;100052.38;4995245;28;20378;-77
2021/10/30 09:02:54;;;;;;;12.10;8.70;;;;;;;10.55;100.00;100052.38;4994263;28;20030;-76
2021/10/30 09:05:23;;;;;;;15.63;9.88;;;;;;;10.56;100.00;100054.03;4993592;28;20033;-76
2021/10/30 09:07:54;;;;;;;16.38;9.77;;;;;;;10.58;100.00;100056.53;4994286;28;20030;-77
2021/10/30 09:10:41;;;;;;;15.13;8.48;;;;;;;10.62;100.00;100057.06;4994582;28;20026;-76
2021/10/30 09:13:10;;;;;;;12.00;8.48;;;;;;;10.64;100.00;100047.91;4994768;28;20030;-75
2021/10/30 09:15:40;;;;;;;11.60;8.85;;;;;;;10.65;100.00;100049.56;4994029;28;20598;-77
2021/10/30 09:18:24;;;;;;;15.35;9.40;;;;;;;10.66;100.00;100037.09;4994544;28;20030;-76
2021/10/30 09:20:51;;;;;;;17.23;9.38;;;;;;;10.68;100.00;100051.09;4994155;28;20033;-76
2021/10/30 09:23:24;;;;;;;12.65;8.23;;;;;;;10.68;100.00;100038.63;4994542;28;20510;-77
2021/10/30 09:26:01;;;;;;;12.55;7.80;;;;;;;10.68;100.00;100043.13;4993892;28;20030;-77
2021/10/30 09:28:32;;;;;;;18.33;8.70;;;;;;;10.67;100.00;100030.78;4994392;28;20124;-78
2021/10/30 09:31:06;;;;;;;11.38;7.78;;;;;;;10.67;100.00;100033.47;4993065;28;20030;-77
2021/10/30 09:33:34;;;;;;;14.27;8.27;;;;;;;10.66;100.00;100031.78;4994075;28;20042;-76
2021/10/30 09:36:12;;;;;;;11.25;7.90;;;;;;;10.67;100.00;100028.13;4994554;28;20042;-76
2021/10/30 09:38:40;;;;;;;15.38;9.00;;;;;;;10.68;100.00;100024.50;4993744;28;20031;-76
2021/10/30 09:41:24;;;;;;;12.88;8.40;;;;;;;10.70;100.00;100027.81;4993974;28;20165;-76
2021/10/30 09:43:58;;;;;;;12.55;8.02;;;;;;;10.74;100.00;100023.84;4993751;28;20033;-75
2021/10/30 09:46:26;;;;;;;14.50;8.25;;;;;;;10.77;100.00;100024.34;4993980;28;20030;-76
2021/10/30 09:48:53;;;;;;;12.27;8.05;;;;;;;10.81;100.00;100019.56;4993547;28;20092;-76
2021/10/30 09:51:32;;;;;;;11.27;7.60;;;;;;;10.84;100.00;100019.22;4993743;28;20040;-77
2021/10/30 09:53:59;;;;;;;13.77;8.05;;;;;;;10.88;100.00;100009.09;4993216;28;20130;-77
2021/10/30 09:56:42;;;;;;;11.02;7.78;;;;;;;10.92;100.00;100015.75;4993919;28;20470;-76
2021/10/30 09:59:09;;;;;;;16.38;8.10;;;;;;;10.96;100.00;100018.91;4993970;28;20042;-76
2021/10/30 10:01:35;;;;;;;11.15;7.93;;;;;;;10.97;100.00;100018.75;4993684;28;20068;-77
2021/10/30 10:04:01;;;;;;;9.80;7.60;;;;;;;11.00;100.00;100014.94;4992688;28;20030;-76
2021/10/30 10:06:30;;;;;;;9.85;8.05;;;;;;;11.03;100.00;100014.63;4993951;28;20172;-76
2021/10/30 10:08:56;;;;;;;12.68;7.60;;;;;;;11.00;100.00;100022.94;4993279;28;20110;-77
2021/10/30 10:11:23;;;;;;;7.85;7.00;;;;;;;10.96;100.00;100018.91;4994100;28;20061;-76
2021/10/30 10:13:50;;;;;;;12.25;7.68;;;;;;;10.98;100.00;100022.28;4993186;28;20113;-77
2021/10/30 10:16:26;;;;;;;15.45;7.78;;;;;;;10.98;100.00;100015.13;4993522;28;20435;-76
2021/10/30 10:18:54;;;;;;;11.02;7.90;;;;;;;10.98;100.00;100014.28;4992804;28;20076;-76
2021/10/30 10:21:28;;;;;;;11.50;8.07;;;;;;;11.00;100.00;100012.28;4993382;28;20118;-76
2021/10/30 10:24:00;;;;;;;13.20;8.27;;;;;;;11.01;100.00;100011.31;4993109;28;20113;-76
2021/10/30 10:26:33;;;;;;;11.35;7.32;;;;;;;11.00;100.00;100006.97;4993518;28;20034;-76
2021/10/30 10:29:04;;;;;;;10.10;7.78;;;;;;;11.00;100.00;100006.97;4992906;28;20037;-78
2021/10/30 10:31:30;;;;;;;10.52;7.38;;;;;;;10.99;100.00;100003.47;4993266;28;20497;-76
2021/10/30 10:34:12;;;;;;;10.73;7.80;;;;;;;11.02;100.00;99999.66;4993314;28;20049;-76
2021/10/30 10:36:42;;;;;;;10.30;7.63;;;;;;;11.02;100.00;99999.66;4993336;28;20030;-76
2021/10/30 10:39:10;;;;;;;11.88;7.30;;;;;;;11.04;100.00;99993.16;4993139;28;20458;-76
2021/10/30 10:41:38;;;;;;;17.42;7.40;;;;;;;11.06;100.00;99985.00;4993214;28;20084;-76
2021/10/30 10:44:09;;;;;;;11.70;7.00;;;;;;;11.06;100.00;99996.50;4992588;28;20105;-76
2021/10/30 10:46:41;;;;;;;10.25;7.47;;;;;;;11.10;100.00;99981.88;4993284;28;20066;-76
2021/10/30 10:49:21;;;;;;;12.63;7.03;;;;;;;11.16;100.00;99983.03;4993105;28;20038;-74
2021/10/30 10:52:18;;;;;;;10.45;7.07;;;;;;;11.18;100.00;99973.09;4992797;28;20379;-77
2021/10/30 10:54:56;;;;;;;9.15;6.35;;;;;;;11.20;100.00;99981.72;4992507;28;20418;-77
2021/10/30 10:57:23;;;;;;;7.88;6.60;;;;;;;11.23;100.00;99981.41;4993070;28;20050;-74
2021/10/30 11:00:15;;;;;;;7.55;6.00;;;;;;;11.25;100.00;99974.06;4991125;28;20090;-76
2021/10/30 11:02:52;;;;;;;8.45;6.28;;;;;;;11.24;100.00;99967.09;4992897;28;20485;-75
2021/10/30 11:05:19;;;;;;;7.68;6.20;;;;;;;11.25;100.00;99965.25;4993100;28;20085;-74
2021/10/30 11:07:50;;;;;;;7.53;6.22;;;;;;;11.27;100.00;99966.75;4992529;28;20038;-74
2021/10/30 11:10:20;;;;;;;8.20;6.60;;;;;;;11.28;100.00;99968.41;4993149;28;20066;-74